Time;durP1;ratioP1;P1;durP2;ratioP2;P2;SDS_P1;SDS_P2;PMS_P1;PMS_P2;Temp;Humidity;BMP_temperature;BMP_pressure;BME280_temperature;BME280_humidity;BME280_pressure;Samples;Min_cycle;Max_cycle;Signal;HPM_P1;HPM_P2
2022/03/01 00:01:48;;;;;;;15.98;5.38;;;;;;;-0.54;100.00;95455.88;4951294;28;20047;-89
2022/03/01 00:04:13;;;;;;;16.27;5.97;;;;;;;-0.46;100.00;95466.13;4921214;29;20039;-89
2022/03/01 00:06:39;;;;;;;18.92;6.18;;;;;;;-0.54;100.00;95469.56;4921226;29;20035;-89
2022/03/01 00:09:04;;;;;;;19.77;4.90;;;;;;;-0.52;100.00;95467.59;4921168;29;20032;-88
2022/03/01 00:11:32;;;;;;;17.73;5.35;;;;;;;-0.68;100.00;95476.22;4920956;29;20485;-89
2022/03/01 00:13:58;;;;;;;17.48;5.32;;;;;;;-0.55;100.00;95483.41;4951386;29;20035;-89
2022/03/01 00:16:24;;;;;;;13.55;5.40;;;;;;;-0.49;100.00;95481.91;4951590;29;20087;-89
2022/03/01 00:18:57;;;;;;;17.33;5.28;;;;;;;-0.30;100.00;95491.78;4951553;29;20032;-88
2022/03/01 00:21:24;;;;;;;12.00;4.82;;;;;;;-0.39;100.00;95489.41;4951233;29;20358;-89
2022/03/01 00:23:49;;;;;;;17.65;5.93;;;;;;;-0.41;100.00;95488.78;4921446;29;20047;-89
2022/03/01 00:26:15;;;;;;;13.13;5.45;;;;;;;-0.46;100.00;95497.81;4920888;29;20036;-89
2022/03/01 00:28:40;;;;;;;12.52;5.03;;;;;;;-0.26;100.00;95496.56;4951508;29;20035;-89
2022/03/01 00:31:06;;;;;;;15.25;5.68;;;;;;;-0.34;100.00;95494.84;4951525;29;20044;-89
2022/03/01 00:33:32;;;;;;;15.90;5.18;;;;;;;-0.36;100.00;95489.88;4951383;29;20035;-89
2022/03/01 00:35:57;;;;;;;14.35;5.22;;;;;;;-0.28;100.00;95499.34;4951447;29;20051;-89
2022/03/01 00:38:23;;;;;;;12.93;4.63;;;;;;;-0.25;100.00;95495.59;4951187;29;20039;-89
2022/03/01 00:40:48;;;;;;;12.25;4.60;;;;;;;-0.23;100.00;95504.78;4951527;29;20051;-89
2022/03/01 00:43:14;;;;;;;12.73;4.50;;;;;;;-0.20;100.00;95501.84;4919349;29;20059;-89
2022/03/01 00:45:39;;;;;;;16.27;5.20;;;;;;;-0.41;100.00;95505.03;4951238;29;20349;-88
2022/03/01 00:48:05;;;;;;;18.27;5.70;;;;;;;-0.32;100.00;95501.44;4951289;29;20438;-89
2022/03/01 00:50:30;;;;;;;10.98;5.18;;;;;;;-0.31;100.00;95505.63;4951038;29;20503;-89
2022/03/01 00:52:56;;;;;;;11.63;5.20;;;;;;;-0.26;99.42;95509.44;4951517;29;20128;-89
2022/03/01 00:55:21;;;;;;;15.35;5.30;;;;;;;-0.24;96.42;95516.03;4951236;29;20058;-89
2022/03/01 00:57:46;;;;;;;11.80;4.80;;;;;;;-0.29;95.50;95515.72;4920824;29;20051;-89
2022/03/01 01:00:13;;;;;;;15.10;4.78;;;;;;;-0.35;93.10;95509.53;4920374;29;20218;-89
2022/03/01 01:02:39;;;;;;;14.77;4.20;;;;;;;-0.38;94.38;95512.41;4950753;29;20426;-89
2022/03/01 01:05:05;;;;;;;11.40;4.40;;;;;;;-0.33;93.34;95509.31;4951456;29;20040;-89
2022/03/01 01:07:30;;;;;;;8.77;4.07;;;;;;;-0.36;95.50;95510.50;4935408;29;20111;-89
2022/03/01 01:09:56;;;;;;;9.93;4.53;;;;;;;-0.33;92.45;95511.91;4950985;29;20040;-89
2022/03/01 01:12:21;;;;;;;12.27;4.88;;;;;;;-0.48;92.60;95527.28;4920377;29;20426;-89
2022/03/01 01:14:47;;;;;;;10.32;4.50;;;;;;;-0.31;88.85;95528.81;4923442;29;20040;-89
2022/03/01 01:17:12;;;;;;;10.68;4.53;;;;;;;-0.41;86.73;95524.84;4954805;29;20042;-89
2022/03/01 01:19:38;;;;;;;12.82;4.80;;;;;;;-0.49;92.49;95526.47;4954675;29;20083;-89
2022/03/01 01:24:47;;;;;;;13.60;4.65;;;;;;;-0.34;86.28;95518.03;4924029;29;20473;-89
2022/03/01 01:27:13;;;;;;;11.50;4.35;;;;;;;-0.46;91.09;95517.63;4923956;29;20047;-88
2022/03/01 01:29:38;;;;;;;15.27;4.70;;;;;;;-0.59;87.77;95518.97;4938491;29;20104;-89
2022/03/01 01:32:04;;;;;;;12.63;4.57;;;;;;;-0.76;94.79;95520.81;4923124;29;20040;-89
2022/03/01 01:34:30;;;;;;;10.05;3.97;;;;;;;-0.60;89.22;95519.94;4926816;29;20088;-89
2022/03/01 01:36:55;;;;;;;8.35;4.32;;;;;;;-0.63;86.44;95512.56;4954470;29;20040;-89
2022/03/01 01:39:21;;;;;;;14.20;4.63;;;;;;;-0.63;92.36;95517.72;4922748;29;20122;-89
2022/03/01 01:41:46;;;;;;;9.00;4.55;;;;;;;-0.71;94.25;95510.00;4906578;29;20028;-89
2022/03/01 01:44:14;;;;;;;11.20;4.03;;;;;;;-0.55;91.45;95511.72;4922797;29;20353;-89
2022/03/01 01:46:40;;;;;;;17.15;5.40;;;;;;;-0.75;93.79;95509.53;4924278;29;20044;-89
2022/03/01 01:49:05;;;;;;;11.15;4.75;;;;;;;-0.61;92.10;95513.19;4922819;29;20055;-89
2022/03/01 01:51:31;;;;;;;12.27;4.68;;;;;;;-0.62;92.47;95505.63;4906835;29;20087;-89
2022/03/01 01:53:57;;;;;;;12.50;4.82;;;;;;;-0.56;89.15;95510.13;4922721;29;20036;-89
2022/03/01 01:56:22;;;;;;;12.25;4.80;;;;;;;-0.63;92.67;95515.13;4922438;29;20038;-90
2022/03/01 01:58:48;;;;;;;12.45;4.97;;;;;;;-0.57;94.32;95521.38;4922289;29;20127;-89
2022/03/01 02:01:14;;;;;;;9.05;4.35;;;;;;;-0.70;97.30;95521.13;4922130;29;20477;-89
2022/03/01 02:03:39;;;;;;;13.85;5.38;;;;;;;-0.85;100.00;95519.25;4922259;29;20039;-89
2022/03/01 02:06:04;;;;;;;10.90;4.47;;;;;;;-0.81;100.00;95512.78;4923650;29;20071;-89
2022/03/01 02:08:31;;;;;;;12.75;5.05;;;;;;;-0.78;100.00;95509.88;4922446;29;20035;-89
2022/03/01 02:10:57;;;;;;;7.85;4.18;;;;;;;-0.70;98.40;95508.25;4937716;29;20032;-88
2022/03/01 02:13:23;;;;;;;11.95;5.00;;;;;;;-0.79;100.00;95510.84;4921840;29;20047;-89
2022/03/01 02:15:49;;;;;;;18.50;4.18;;;;;;;-0.59;96.22;95513.00;4922371;29;20331;-89
2022/03/01 02:18:18;;;;;;;10.50;5.03;;;;;;;-0.76;92.97;95504.56;4938058;29;20063;-89
2022/03/01 02:20:46;;;;;;;12.18;4.72;;;;;;;-0.63;93.67;95504.03;4906421;29;20036;-89
2022/03/01 02:23:12;;;;;;;11.00;4.43;;;;;;;-0.76;94.70;95502.78;4921902;29;20039;-89
2022/03/01 02:25:37;;;;;;;12.43;4.85;;;;;;;-1.00;97.87;95512.22;4921358;29;20426;-89
2022/03/01 02:28:04;;;;;;;10.90;4.13;;;;;;;-1.33;100.00;95514.88;4922118;29;20044;-89
2022/03/01 02:30:30;;;;;;;10.98;4.45;;;;;;;-1.49;100.00;95507.19;4906053;29;20423;-89
2022/03/01 02:32:56;;;;;;;10.10;4.47;;;;;;;-1.52;100.00;95507.53;4906156;29;20027;-89
2022/03/01 02:35:25;;;;;;;12.93;4.97;;;;;;;-1.86;100.00;95509.31;4921764;29;20043;-88
2022/03/01 02:37:51;;;;;;;12.52;5.20;;;;;;;-1.92;100.00;95510.75;4906544;29;20028;-89
2022/03/01 02:40:16;;;;;;;9.80;4.55;;;;;;;-1.84;100.00;95504.81;4921722;29;20062;-89
2022/03/01 02:42:44;;;;;;;15.25;4.90;;;;;;;-1.72;100.00;95511.22;4922961;29;20040;-89
2022/03/01 02:45:15;;;;;;;11.60;4.85;;;;;;;-1.72;100.00;95507.88;4922968;29;20040;-89
2022/03/01 02:47:43;;;;;;;13.43;4.85;;;;;;;-1.64;100.00;95510.41;4905473;29;20167;-89
2022/03/01 02:50:12;;;;;;;14.77;5.60;;;;;;;-1.63;100.00;95496.59;4906112;29;20147;-89
2022/03/01 02:52:38;;;;;;;9.68;4.50;;;;;;;-1.73;100.00;95507.06;4906186;29;20126;-89
2022/03/01 02:55:04;;;;;;;10.50;4.70;;;;;;;-1.82;100.00;95508.00;4921089;29;20459;-88
2022/03/01 02:57:30;;;;;;;12.18;5.10;;;;;;;-1.97;100.00;95515.56;4905992;29;20092;-89
2022/03/01 02:59:56;;;;;;;13.88;5.60;;;;;;;-1.86;100.00;95517.00;4921575;29;20040;-89
2022/03/01 03:02:21;;;;;;;12.68;4.95;;;;;;;-2.05;100.00;95524.06;4921242;29;20032;-89
2022/03/01 03:04:47;;;;;;;12.55;4.95;;;;;;;-1.87;100.00;95515.41;4921174;29;20039;-88
2022/03/01 03:07:13;;;;;;;13.85;5.55;;;;;;;-2.06;100.00;95512.19;4922592;29;20051;-89
2022/03/01 03:09:38;;;;;;;11.35;4.82;;;;;;;-2.13;100.00;95513.78;4921015;29;20036;-89
2022/03/01 03:12:06;;;;;;;12.38;4.57;;;;;;;-2.04;100.00;95507.72;4905441;29;20453;-88
2022/03/01 03:14:31;;;;;;;10.13;5.28;;;;;;;-2.13;100.00;95516.34;4905407;29;20092;-89
2022/03/01 03:16:57;;;;;;;11.32;5.32;;;;;;;-2.20;100.00;95521.31;4920984;29;20521;-89
2022/03/01 03:19:23;;;;;;;11.57;4.75;;;;;;;-2.25;100.00;95526.13;4921142;29;20331;-88
2022/03/01 03:21:49;;;;;;;9.05;4.60;;;;;;;-2.29;100.00;95533.34;4920702;29;20032;-89
2022/03/01 03:24:15;;;;;;;14.35;5.07;;;;;;;-2.14;100.00;95537.88;4921096;29;20040;-89
2022/03/01 03:26:41;;;;;;;11.23;4.72;;;;;;;-2.35;100.00;95533.16;4904910;29;20062;-89
2022/03/01 03:29:10;;;;;;;12.10;4.47;;;;;;;-2.44;100.00;95535.72;4920495;29;20043;-89
2022/03/01 03:31:40;;;;;;;13.07;4.38;;;;;;;-2.49;100.00;95532.81;4920471;29;20045;-88
2022/03/01 03:34:10;;;;;;;13.63;4.75;;;;;;;-2.55;100.00;95533.44;4920775;29;20061;-89
2022/03/01 03:36:37;;;;;;;14.20;4.68;;;;;;;-2.66;100.00;95529.38;4920091;29;20130;-88
2022/03/01 03:39:04;;;;;;;12.23;4.55;;;;;;;-2.51;100.00;95533.91;4921030;29;20386;-88
2022/03/01 03:41:30;;;;;;;8.73;4.47;;;;;;;-2.65;100.00;95528.47;4920302;29;20036;-88
2022/03/01 03:43:55;;;;;;;13.48;4.57;;;;;;;-2.70;100.00;95534.03;4921591;29;20434;-88
2022/03/01 03:46:23;;;;;;;11.25;4.75;;;;;;;-2.63;100.00;95529.09;4920170;29;20043;-88
2022/03/01 03:48:50;;;;;;;7.97;4.05;;;;;;;-2.58;100.00;95523.50;4938330;29;20110;-89
2022/03/01 03:51:15;;;;;;;9.27;3.95;;;;;;;-2.47;100.00;95524.97;4943330;29;20034;-88
2022/03/01 03:53:41;;;;;;;11.40;4.63;;;;;;;-2.30;100.00;95526.59;4920076;29;20439;-88
2022/03/01 03:56:07;;;;;;;9.88;3.95;;;;;;;-2.35;97.65;95539.13;4920378;29;20131;-88
2022/03/01 03:58:32;;;;;;;7.15;3.65;;;;;;;-2.45;98.65;95536.66;4904404;29;20241;-88
2022/03/01 04:01:04;;;;;;;13.27;4.07;;;;;;;-2.34;97.58;95542.47;4930330;29;20051;-85
2022/03/01 04:03:30;;;;;;;10.55;3.95;;;;;;;-2.13;99.44;95544.59;4923435;29;20039;-85
2022/03/01 04:05:55;;;;;;;9.07;3.78;;;;;;;-2.25;100.00;95543.28;4938801;29;20031;-85
2022/03/01 04:08:21;;;;;;;13.70;4.18;;;;;;;-2.08;97.08;95542.38;4954683;29;20035;-85
2022/03/01 04:10:46;;;;;;;11.20;4.05;;;;;;;-1.75;93.78;95547.53;4938494;29;20118;-85
2022/03/01 04:13:12;;;;;;;16.63;4.30;;;;;;;-1.74;92.58;95538.84;4954342;29;20038;-85
2022/03/01 04:15:38;;;;;;;8.13;3.20;;;;;;;-1.63;94.37;95540.28;4939743;29;20032;-85
2022/03/01 04:18:06;;;;;;;8.73;3.75;;;;;;;-1.70;99.19;95549.63;4954403;29;20060;-85
2022/03/01 04:20:31;;;;;;;11.90;4.47;;;;;;;-1.88;99.54;95547.19;4939476;29;20040;-85
2022/03/01 04:22:57;;;;;;;7.63;3.58;;;;;;;-1.72;97.01;95551.56;4952668;29;20127;-85
2022/03/01 04:25:24;;;;;;;12.10;4.10;;;;;;;-1.94;100.00;95545.25;4939508;29;20433;-85
2022/03/01 04:27:50;;;;;;;14.93;4.18;;;;;;;-2.08;100.00;95560.34;4938794;29;20040;-85
2022/03/01 04:30:16;;;;;;;10.18;4.45;;;;;;;-2.14;100.00;95543.81;4939007;29;20024;-85
2022/03/01 04:32:44;;;;;;;8.25;4.10;;;;;;;-2.14;100.00;95543.81;4938692;29;20047;-85
2022/03/01 04:35:12;;;;;;;9.88;4.40;;;;;;;-2.22;100.00;95545.53;4922811;29;20031;-85
2022/03/01 04:37:39;;;;;;;12.00;4.13;;;;;;;-2.38;100.00;95549.69;4938540;29;20092;-85
2022/03/01 04:40:06;;;;;;;17.52;5.00;;;;;;;-2.44;100.00;95550.31;4938124;29;20031;-85
2022/03/01 04:42:32;;;;;;;14.02;4.32;;;;;;;-2.50;100.00;95545.81;4938519;29;20038;-85
2022/03/01 04:44:58;;;;;;;10.52;4.03;;;;;;;-2.49;100.00;95544.84;4938256;29;20131;-85
2022/03/01 04:47:23;;;;;;;13.95;4.82;;;;;;;-2.36;100.00;95552.09;4937959;29;20038;-85
2022/03/01 04:49:49;;;;;;;11.52;4.05;;;;;;;-2.50;100.00;95559.44;4954094;29;20382;-85
2022/03/01 04:52:14;;;;;;;10.30;4.50;;;;;;;-2.49;100.00;95553.34;4938424;29;20038;-85
2022/03/01 04:54:40;;;;;;;9.25;4.18;;;;;;;-2.62;100.00;95547.84;4938212;29;20134;-85
2022/03/01 04:57:05;;;;;;;10.73;4.95;;;;;;;-2.58;100.00;95554.31;4937612;29;20039;-85
2022/03/01 04:59:31;;;;;;;17.02;4.93;;;;;;;-2.53;100.00;95561.50;4921648;29;20031;-85
2022/03/01 05:01:56;;;;;;;9.82;4.38;;;;;;;-2.50;100.00;95556.88;4937161;29;20115;-85
2022/03/01 05:04:22;;;;;;;13.85;4.68;;;;;;;-2.63;100.00;95549.63;4937917;29;20031;-85
2022/03/01 05:06:48;;;;;;;11.13;4.53;;;;;;;-2.60;100.00;95548.50;4938234;29;20126;-85
2022/03/01 05:09:13;;;;;;;8.32;4.13;;;;;;;-2.71;100.00;95547.84;4953936;29;20046;-85
2022/03/01 05:11:39;;;;;;;12.80;5.22;;;;;;;-2.64;100.00;95550.59;4954063;29;20032;-85
2022/03/01 05:14:05;;;;;;;12.73;4.95;;;;;;;-2.71;100.00;95547.03;4954263;29;20033;-85
2022/03/01 05:16:31;;;;;;;12.25;4.35;;;;;;;-2.78;100.00;95543.47;4954258;29;20047;-85
2022/03/01 05:18:56;;;;;;;12.02;4.57;;;;;;;-2.84;100.00;95550.03;4939382;29;20032;-85
2022/03/01 05:21:22;;;;;;;11.88;5.07;;;;;;;-2.87;100.00;95545.19;4953703;29;20127;-85
2022/03/01 05:23:47;;;;;;;9.85;4.50;;;;;;;-2.81;100.00;95552.28;4938142;29;20352;-84
2022/03/01 05:26:13;;;;;;;8.00;3.80;;;;;;;-2.82;100.00;95552.41;4954168;29;20039;-84
2022/03/01 05:28:38;;;;;;;10.98;4.70;;;;;;;-2.96;100.00;95556.38;4953772;29;20038;-84
2022/03/01 05:31:03;;;;;;;10.45;4.82;;;;;;;-3.07;100.00;95558.25;4937907;29;20444;-84
2022/03/01 05:33:29;;;;;;;13.60;4.57;;;;;;;-2.96;100.00;95553.81;4953821;29;20054;-84
2022/03/01 05:35:54;;;;;;;13.40;4.88;;;;;;;-2.99;100.00;95565.16;4937998;29;20024;-84
2022/03/01 05:38:20;;;;;;;11.10;4.45;;;;;;;-2.95;100.00;95565.66;4938951;29;20123;-83
2022/03/01 05:44:08;;;;;;;9.27;4.72;;;;;;;-2.90;100.00;95568.56;4938952;29;20459;-85
2022/03/01 05:46:34;;;;;;;17.55;4.70;;;;;;;-2.95;100.00;95571.59;4953551;29;20023;-84
2022/03/01 05:49:07;;;;;;;14.95;4.68;;;;;;;-2.98;100.00;95574.47;4921767;29;20071;-84
2022/03/01 05:51:33;;;;;;;8.82;4.15;;;;;;;-2.88;100.00;95574.34;4950138;29;20096;-84
2022/03/01 05:53:59;;;;;;;16.50;5.68;;;;;;;-2.77;100.00;95575.88;4924701;29;20401;-84
2022/03/01 05:56:24;;;;;;;13.90;5.22;;;;;;;-2.76;100.00;95573.13;4938751;29;20078;-84
2022/03/01 05:58:49;;;;;;;13.13;5.43;;;;;;;-2.89;100.00;95575.31;4950463;29;20039;-84
2022/03/01 06:01:15;;;;;;;11.48;4.75;;;;;;;-2.79;100.00;95573.44;4944808;29;20084;-83
2022/03/01 06:03:40;;;;;;;13.75;5.75;;;;;;;-2.88;100.00;95569.22;4962397;28;20345;-84
2022/03/01 06:06:06;;;;;;;18.77;5.82;;;;;;;-2.87;100.00;95573.38;4942432;29;20441;-83
2022/03/01 06:08:31;;;;;;;15.75;5.97;;;;;;;-2.89;100.00;95573.56;4957150;29;20160;-84
2022/03/01 06:10:57;;;;;;;14.43;4.70;;;;;;;-2.90;100.00;95577.09;4957009;29;20036;-83
2022/03/01 06:13:22;;;;;;;13.75;5.47;;;;;;;-2.95;100.00;95574.16;4957058;28;20027;-83
2022/03/01 06:15:48;;;;;;;17.60;6.00;;;;;;;-2.95;100.00;95576.72;4942204;29;20072;-83
2022/03/01 06:18:14;;;;;;;12.18;5.18;;;;;;;-3.02;100.00;95576.53;4957003;29;20039;-83
2022/03/01 06:20:40;;;;;;;11.20;5.15;;;;;;;-2.91;100.00;95577.22;4956519;29;20038;-83
2022/03/01 06:23:05;;;;;;;21.50;5.85;;;;;;;-2.79;100.00;95582.91;4956643;29;20031;-83
2022/03/01 06:25:31;;;;;;;12.90;5.47;;;;;;;-2.70;100.00;95587.09;4956579;29;20512;-83
2022/03/01 06:27:57;;;;;;;14.52;5.35;;;;;;;-2.67;100.00;95591.13;4940850;29;20119;-83
2022/03/01 06:30:23;;;;;;;12.73;4.95;;;;;;;-2.54;100.00;95594.09;4941474;29;20028;-83
2022/03/01 06:32:48;;;;;;;9.57;5.15;;;;;;;-2.34;100.00;95592.06;4956852;29;20067;-83
2022/03/01 06:35:14;;;;;;;16.98;5.57;;;;;;;-2.21;100.00;95596.75;4940499;29;20031;-83
2022/03/01 06:37:39;;;;;;;12.23;4.85;;;;;;;-2.33;100.00;95587.72;4956376;29;20023;-82
2022/03/01 06:40:06;;;;;;;19.75;6.85;;;;;;;-2.13;100.00;95589.06;4924467;29;20031;-83
2022/03/01 06:42:32;;;;;;;18.27;6.72;;;;;;;-2.00;100.00;95593.75;4940296;29;20039;-83
2022/03/01 06:44:58;;;;;;;12.85;5.00;;;;;;;-1.86;100.00;95588.94;4956556;29;20041;-83
2022/03/01 06:47:23;;;;;;;12.50;5.88;;;;;;;-1.79;100.00;95599.41;4956161;29;20031;-83
2022/03/01 06:49:49;;;;;;;13.45;5.72;;;;;;;-1.65;100.00;95593.63;4956369;29;20038;-83
2022/03/01 06:52:14;;;;;;;12.13;5.68;;;;;;;-1.71;100.00;95596.84;4941407;29;20087;-83
2022/03/01 06:54:40;;;;;;;12.05;5.57;;;;;;;-1.67;100.00;95605.00;4956116;29;20034;-83
2022/03/01 06:57:05;;;;;;;17.60;5.90;;;;;;;-1.47;100.00;95601.19;4941246;29;20019;-83
2022/03/01 06:59:31;;;;;;;16.13;6.25;;;;;;;-1.42;100.00;95605.84;4956215;29;20393;-83
2022/03/01 07:01:57;;;;;;;16.25;6.35;;;;;;;-1.46;100.00;95605.34;4956016;29;20035;-83
2022/03/01 07:04:22;;;;;;;17.65;6.13;;;;;;;-1.42;100.00;95604.06;4940170;29;20035;-83
2022/03/01 07:06:48;;;;;;;16.40;6.25;;;;;;;-1.31;100.00;95602.13;4940096;29;20027;-83
2022/03/01 07:09:14;;;;;;;13.13;6.22;;;;;;;-1.18;99.46;95609.34;4955819;29;20460;-83
2022/03/01 07:11:39;;;;;;;15.48;6.53;;;;;;;-1.26;99.24;95605.03;4955580;28;20027;-83
2022/03/01 07:14:04;;;;;;;22.45;6.47;;;;;;;-1.34;100.00;95608.41;4956081;29;20042;-83
2022/03/01 07:16:30;;;;;;;15.73;6.32;;;;;;;-1.00;100.00;95612.56;4955707;29;20023;-83
2022/03/01 07:18:55;;;;;;;15.68;5.85;;;;;;;-0.84;96.91;95610.09;4941113;29;20118;-84
2022/03/01 07:21:21;;;;;;;13.20;5.18;;;;;;;-0.71;94.84;95615.53;4940874;29;20036;-83
2022/03/01 07:23:47;;;;;;;11.23;5.20;;;;;;;-0.59;89.92;95621.94;4955497;29;20553;-84
2022/03/01 07:26:12;;;;;;;16.20;5.95;;;;;;;-0.57;87.43;95620.00;4955756;29;20212;-84
2022/03/01 07:28:38;;;;;;;14.55;5.60;;;;;;;-0.55;85.86;95626.75;4939725;29;20071;-84
2022/03/01 07:31:03;;;;;;;12.48;5.40;;;;;;;-0.64;87.82;95626.78;4939161;29;20036;-84
2022/03/01 07:33:29;;;;;;;14.35;5.45;;;;;;;-0.54;85.91;95623.22;4939505;29;20066;-84
2022/03/01 07:35:54;;;;;;;17.70;5.30;;;;;;;-0.35;88.46;95633.13;4955642;29;20037;-83
2022/03/01 07:38:20;;;;;;;14.57;6.18;;;;;;;-0.04;81.21;95636.69;4955600;29;20114;-84
2022/03/01 07:40:45;;;;;;;13.35;5.85;;;;;;;-0.23;84.45;95641.28;4955108;29;20031;-84
2022/03/01 07:43:11;;;;;;;13.30;6.00;;;;;;;-0.51;83.40;95649.44;4939252;29;20035;-84
2022/03/01 07:45:36;;;;;;;18.08;5.93;;;;;;;-0.54;83.29;95636.91;4955134;29;20075;-84
2022/03/01 07:48:02;;;;;;;16.48;5.70;;;;;;;-0.62;81.32;95639.47;4955350;29;20075;-83
2022/03/01 07:50:29;;;;;;;12.75;5.63;;;;;;;-0.38;82.59;95641.16;4955187;29;20028;-83
2022/03/01 07:52:55;;;;;;;10.50;5.28;;;;;;;-0.18;79.80;95646.72;4939259;29;20032;-84
2022/03/01 07:55:21;;;;;;;16.20;6.45;;;;;;;-0.10;78.57;95647.69;4954920;29;20034;-84
2022/03/01 07:57:46;;;;;;;11.00;5.35;;;;;;;0.15;75.91;95656.06;4939167;29;20434;-84
2022/03/01 08:00:13;;;;;;;17.42;5.57;;;;;;;-0.25;75.14;95648.38;4938795;29;20028;-84
2022/03/01 08:02:39;;;;;;;12.18;5.30;;;;;;;-0.33;78.28;95649.22;4955108;29;20036;-84
2022/03/01 08:05:06;;;;;;;15.55;5.78;;;;;;;-0.47;76.28;95647.34;4938981;29;20030;-84
2022/03/01 08:07:33;;;;;;;11.95;5.60;;;;;;;-0.29;76.70;95641.94;4954748;29;20429;-83
2022/03/01 08:09:58;;;;;;;15.70;5.68;;;;;;;-0.19;75.57;95650.28;4938856;29;20023;-84
2022/03/01 08:12:24;;;;;;;13.32;5.45;;;;;;;-0.17;74.16;95650.91;4938952;29;20035;-84
2022/03/01 08:14:49;;;;;;;14.82;5.18;;;;;;;-0.11;73.43;95654.59;4954616;29;20030;-84
2022/03/01 08:17:15;;;;;;;8.98;4.65;;;;;;;0.33;78.77;95647.28;4939890;29;20028;-84
2022/03/01 08:19:40;;;;;;;10.48;5.50;;;;;;;0.34;74.88;95660.00;4954697;29;20027;-84
2022/03/01 08:22:05;;;;;;;15.10;5.40;;;;;;;-0.01;74.50;95662.09;4939536;29;20039;-84
2022/03/01 08:24:31;;;;;;;13.63;5.55;;;;;;;-0.18;75.26;95649.31;4954700;29;20462;-84
2022/03/01 08:26:56;;;;;;;17.05;5.32;;;;;;;-0.23;74.34;95643.03;4922642;29;20166;-84
2022/03/01 08:29:22;;;;;;;11.05;5.00;;;;;;;-0.35;75.99;95642.63;4954481;29;20341;-84
2022/03/01 08:31:47;;;;;;;12.75;5.55;;;;;;;-0.04;78.88;95642.66;4939704;29;20037;-84
2022/03/01 08:34:13;;;;;;;14.23;5.38;;;;;;;0.10;79.20;95646.28;4938308;29;20183;-84
2022/03/01 08:36:39;;;;;;;9.50;4.47;;;;;;;0.24;71.87;95639.59;4938600;29;20079;-84
2022/03/01 08:39:04;;;;;;;13.82;5.10;;;;;;;0.17;71.64;95632.72;4954370;29;20051;-84
2022/03/01 08:41:30;;;;;;;10.82;5.55;;;;;;;0.03;73.07;95629.09;4939340;29;20028;-84
2022/03/01 08:43:56;;;;;;;20.17;5.80;;;;;;;0.28;73.93;95634.88;4939433;29;20457;-83
2022/03/01 08:46:23;;;;;;;10.07;4.90;;;;;;;0.25;73.65;95632.66;4954524;29;20128;-84
2022/03/01 08:48:51;;;;;;;10.95;4.68;;;;;;;0.08;71.90;95621.66;4938448;29;20034;-84
2022/03/01 08:51:17;;;;;;;13.40;6.03;;;;;;;0.34;74.49;95629.06;4953872;29;20026;-84
2022/03/01 08:53:42;;;;;;;12.55;4.65;;;;;;;0.08;70.60;95621.66;4954204;29;20032;-84
2022/03/01 08:56:08;;;;;;;12.55;5.35;;;;;;;0.11;70.14;95622.09;4954305;28;20118;-84
2022/03/01 08:58:34;;;;;;;10.23;5.20;;;;;;;0.35;74.91;95620.34;4939601;29;20356;-84
2022/03/01 09:00:59;;;;;;;12.27;5.63;;;;;;;0.16;70.41;95623.38;4953962;29;20405;-84
2022/03/01 09:03:26;;;;;;;9.25;4.85;;;;;;;0.27;72.10;95618.63;4954376;29;20434;-84
2022/03/01 09:05:51;;;;;;;12.57;5.60;;;;;;;0.18;71.70;95616.28;4938239;29;20027;-84
2022/03/01 09:08:17;;;;;;;11.43;5.40;;;;;;;0.27;73.82;95621.22;4939526;29;20031;-84
2022/03/01 09:10:44;;;;;;;12.48;5.30;;;;;;;0.51;73.64;95619.44;4954084;29;20047;-84
2022/03/01 09:13:09;;;;;;;10.77;5.20;;;;;;;0.40;72.11;95623.22;4954266;29;20062;-84
2022/03/01 09:15:35;;;;;;;12.45;5.05;;;;;;;0.56;73.22;95609.41;4939168;29;20058;-84
2022/03/01 09:18:05;;;;;;;15.27;4.88;;;;;;;1.10;86.48;95610.22;4954217;29;20119;-84
2022/03/01 09:20:32;;;;;;;12.82;4.78;;;;;;;1.08;94.33;95604.44;4953670;29;20038;-84
2022/03/01 09:22:58;;;;;;;13.07;4.75;;;;;;;1.32;88.52;95601.78;4954206;29;20036;-84
2022/03/01 09:25:24;;;;;;;15.00;5.47;;;;;;;1.53;87.51;95604.44;4953795;29;20039;-84
2022/03/01 09:27:49;;;;;;;10.52;4.55;;;;;;;1.53;81.16;95609.59;4939070;29;20110;-84
2022/03/01 09:30:16;;;;;;;9.35;4.70;;;;;;;1.23;78.63;95598.50;4953608;29;20035;-84
2022/03/01 09:32:42;;;;;;;10.98;4.43;;;;;;;1.44;85.09;95599.56;4954062;29;20135;-84
2022/03/01 09:35:08;;;;;;;8.27;4.38;;;;;;;1.44;73.70;95604.72;4955204;28;20414;-84
2022/03/01 09:37:34;;;;;;;11.80;5.07;;;;;;;0.90;74.01;95604.78;4957506;29;20036;-84
2022/03/01 09:40:00;;;;;;;11.07;4.70;;;;;;;1.36;85.22;95605.59;4957168;29;20450;-84
2022/03/01 09:42:27;;;;;;;9.77;4.65;;;;;;;1.54;85.12;95594.91;4957331;29;20032;-84
2022/03/01 09:44:54;;;;;;;10.70;4.88;;;;;;;1.65;82.74;95591.06;4957419;29;20028;-84
2022/03/01 09:47:19;;;;;;;9.32;4.72;;;;;;;1.83;81.69;95588.88;4957316;29;20057;-84
2022/03/01 09:49:45;;;;;;;14.00;5.05;;;;;;;1.55;71.52;95592.13;4957462;29;20108;-84
2022/03/01 09:52:10;;;;;;;13.57;5.20;;;;;;;1.57;81.31;95593.75;4942454;29;20031;-84
2022/03/01 09:54:36;;;;;;;11.38;4.93;;;;;;;1.45;73.13;95591.63;4942435;29;20449;-84
2022/03/01 09:57:01;;;;;;;9.40;4.95;;;;;;;1.74;73.72;95584.81;4942638;29;20039;-84
2022/03/01 09:59:27;;;;;;;10.90;5.13;;;;;;;1.82;72.45;95589.88;4957388;29;20040;-84
2022/03/01 10:01:53;;;;;;;9.77;5.15;;;;;;;2.09;75.17;95592.75;4957208;29;20043;-84
2022/03/01 10:04:19;;;;;;;11.40;4.78;;;;;;;2.09;72.87;95590.16;4942487;29;20039;-84
2022/03/01 10:06:47;;;;;;;8.50;4.90;;;;;;;1.63;69.90;95577.53;4941353;29;20322;-84
2022/03/01 10:09:29;;;;;;;10.45;4.97;;;;;;;1.76;68.25;95582.84;4956970;29;20028;-84
2022/03/01 10:12:03;;;;;;;9.30;5.07;;;;;;;1.89;67.93;95579.59;4941056;29;20063;-84
2022/03/01 10:14:31;;;;;;;8.63;4.75;;;;;;;1.84;70.70;95582.75;4942399;29;20102;-84
2022/03/01 10:16:57;;;;;;;11.93;5.15;;;;;;;1.77;68.44;95579.28;4956757;29;20032;-84
2022/03/01 10:19:23;;;;;;;7.95;4.35;;;;;;;1.63;67.86;95572.38;4957073;29;20350;-84
2022/03/01 10:21:56;;;;;;;9.82;4.30;;;;;;;1.68;68.89;95572.63;4956759;29;20032;-84
2022/03/01 10:24:22;;;;;;;8.68;4.60;;;;;;;1.63;66.51;95572.38;4941941;29;20568;-84
2022/03/01 10:26:49;;;;;;;10.57;4.63;;;;;;;1.76;69.86;95567.34;4940880;29;20122;-84
2022/03/01 10:29:15;;;;;;;17.13;5.05;;;;;;;1.83;65.13;95564.84;4942072;29;20039;-84
2022/03/01 10:31:42;;;;;;;12.18;5.00;;;;;;;1.69;64.24;95566.47;4956404;29;20043;-84
2022/03/01 10:34:10;;;;;;;9.85;4.80;;;;;;;2.17;65.57;95567.78;4956504;29;20361;-84
2022/03/01 10:36:48;;;;;;;12.40;4.95;;;;;;;2.22;64.35;95562.84;4941915;29;20099;-84
2022/03/01 10:39:15;;;;;;;9.13;4.70;;;;;;;2.12;66.71;95557.97;4956395;29;20035;-84
2022/03/01 10:41:44;;;;;;;15.40;5.20;;;;;;;2.35;67.40;95556.97;4956492;29;20079;-84
2022/03/01 10:44:18;;;;;;;9.90;4.60;;;;;;;2.47;66.19;95558.09;4956326;29;20079;-84
2022/03/01 10:46:49;;;;;;;9.48;5.18;;;;;;;2.91;68.64;95553.63;4955947;28;20348;-84
2022/03/01 10:49:18;;;;;;;10.35;4.75;;;;;;;2.66;63.90;95543.72;4940274;29;20074;-84
2022/03/01 10:51:52;;;;;;;12.57;5.35;;;;;;;2.63;60.15;95545.88;4956417;29;20035;-84
2022/03/01 10:54:34;;;;;;;10.52;5.18;;;;;;;2.40;60.41;95536.53;4956132;29;20087;-84
2022/03/01 10:57:02;;;;;;;12.48;4.93;;;;;;;2.53;62.28;95533.25;4941332;29;20161;-83
2022/03/01 10:59:33;;;;;;;10.88;5.18;;;;;;;2.60;60.64;95528.94;4956095;29;20027;-84
2022/03/01 11:01:59;;;;;;;11.40;5.07;;;;;;;2.47;58.29;95527.03;4955867;29;20107;-84
2022/03/01 11:04:25;;;;;;;11.90;5.07;;;;;;;2.69;61.53;95522.63;4955927;29;20027;-84
2022/03/01 11:06:53;;;;;;;10.75;5.15;;;;;;;2.98;61.44;95522.63;4941394;29;20036;-84
2022/03/01 11:09:19;;;;;;;10.40;5.13;;;;;;;3.33;58.47;95516.63;4941052;29;20028;-84
2022/03/01 11:11:45;;;;;;;13.00;5.32;;;;;;;3.10;59.24;95504.75;4955992;29;20418;-84
2022/03/01 11:14:13;;;;;;;10.40;4.55;;;;;;;3.09;57.24;95508.31;4940013;29;20505;-84
2022/03/01 11:16:50;;;;;;;12.77;5.57;;;;;;;3.00;61.14;95505.09;4955705;29;20051;-84
2022/03/01 11:19:28;;;;;;;11.05;5.50;;;;;;;2.95;61.48;95497.13;4939600;29;20031;-84
2022/03/01 11:21:54;;;;;;;10.93;5.22;;;;;;;3.09;61.81;95487.59;4955736;29;20365;-84
2022/03/01 11:24:21;;;;;;;10.23;5.20;;;;;;;3.48;63.49;95496.56;4939641;29;20031;-84
2022/03/01 11:26:47;;;;;;;10.50;4.97;;;;;;;3.26;58.12;95482.91;4955847;29;20039;-83